sensor_id;sensor_type;location;lat;lon;timestamp;P1;durP1;ratioP1;P2;durP2;ratioP2
28003;SDS011;15330;51.234;6.754;2023-08-31T00:00:40;7.57;;;3.75;;
28003;SDS011;15330;51.234;6.754;2023-08-31T00:03:06;8.40;;;3.88;;
28003;SDS011;15330;51.234;6.754;2023-08-31T00:05:36;9.13;;;4.18;;
28003;SDS011;15330;51.234;6.754;2023-08-31T00:08:06;10.63;;;4.15;;
28003;SDS011;15330;51.234;6.754;2023-08-31T00:10:31;10.55;;;4.18;;
28003;SDS011;15330;51.234;6.754;2023-08-31T00:12:57;11.63;;;4.15;;
28003;SDS011;15330;51.234;6.754;2023-08-31T00:15:22;10.38;;;4.30;;
28003;SDS011;15330;51.234;6.754;2023-08-31T00:17:48;9.10;;;4.07;;
28003;SDS011;15330;51.234;6.754;2023-08-31T00:20:14;9.77;;;4.35;;
28003;SDS011;15330;51.234;6.754;2023-08-31T00:22:39;9.00;;;4.35;;
28003;SDS011;15330;51.234;6.754;2023-08-31T00:25:05;7.93;;;3.90;;
28003;SDS011;15330;51.234;6.754;2023-08-31T00:27:33;12.85;;;4.90;;
28003;SDS011;15330;51.234;6.754;2023-08-31T00:29:58;12.55;;;4.20;;
28003;SDS011;15330;51.234;6.754;2023-08-31T00:32:24;20.23;;;5.13;;
28003;SDS011;15330;51.234;6.754;2023-08-31T00:34:50;11.48;;;4.88;;
28003;SDS011;15330;51.234;6.754;2023-08-31T00:37:15;11.95;;;5.00;;
28003;SDS011;15330;51.234;6.754;2023-08-31T00:39:41;11.10;;;4.75;;
28003;SDS011;15330;51.234;6.754;2023-08-31T00:42:06;13.02;;;4.30;;
28003;SDS011;15330;51.234;6.754;2023-08-31T00:44:32;9.38;;;4.90;;
28003;SDS011;15330;51.234;6.754;2023-08-31T00:46:58;11.57;;;5.18;;
28003;SDS011;15330;51.234;6.754;2023-08-31T00:49:23;11.48;;;4.78;;
28003;SDS011;15330;51.234;6.754;2023-08-31T00:51:49;20.33;;;5.43;;
28003;SDS011;15330;51.234;6.754;2023-08-31T00:54:19;12.30;;;4.60;;
28003;SDS011;15330;51.234;6.754;2023-08-31T00:56:46;10.30;;;4.93;;
28003;SDS011;15330;51.234;6.754;2023-08-31T00:59:11;8.32;;;4.63;;
28003;SDS011;15330;51.234;6.754;2023-08-31T01:01:40;12.85;;;5.10;;
28003;SDS011;15330;51.234;6.754;2023-08-31T01:04:16;11.70;;;4.63;;
28003;SDS011;15330;51.234;6.754;2023-08-31T01:09:40;11.45;;;4.53;;
28003;SDS011;15330;51.234;6.754;2023-08-31T01:12:21;9.13;;;4.70;;
28003;SDS011;15330;51.234;6.754;2023-08-31T01:15:04;11.77;;;5.32;;
28003;SDS011;15330;51.234;6.754;2023-08-31T01:17:33;13.07;;;5.10;;
28003;SDS011;15330;51.234;6.754;2023-08-31T01:20:08;9.43;;;4.78;;
28003;SDS011;15330;51.234;6.754;2023-08-31T01:22:40;13.43;;;4.72;;
28003;SDS011;15330;51.234;6.754;2023-08-31T01:25:12;9.77;;;4.95;;
28003;SDS011;15330;51.234;6.754;2023-08-31T01:27:38;12.00;;;5.20;;
28003;SDS011;15330;51.234;6.754;2023-08-31T01:30:04;10.57;;;4.82;;
28003;SDS011;15330;51.234;6.754;2023-08-31T01:32:30;6.93;;;4.72;;
28003;SDS011;15330;51.234;6.754;2023-08-31T01:34:56;9.05;;;4.65;;
28003;SDS011;15330;51.234;6.754;2023-08-31T01:38:04;8.32;;;5.03;;
28003;SDS011;15330;51.234;6.754;2023-08-31T01:40:17;7.18;;;4.30;;
28003;SDS011;15330;51.234;6.754;2023-08-31T01:42:44;7.10;;;4.50;;
28003;SDS011;15330;51.234;6.754;2023-08-31T01:45:11;9.35;;;4.20;;
28003;SDS011;15330;51.234;6.754;2023-08-31T01:47:40;9.25;;;4.35;;
28003;SDS011;15330;51.234;6.754;2023-08-31T01:50:06;8.25;;;4.25;;
28003;SDS011;15330;51.234;6.754;2023-08-31T01:52:31;7.70;;;4.63;;
28003;SDS011;15330;51.234;6.754;2023-08-31T01:54:56;7.78;;;4.13;;
28003;SDS011;15330;51.234;6.754;2023-08-31T01:57:22;8.80;;;4.38;;
28003;SDS011;15330;51.234;6.754;2023-08-31T01:59:47;8.05;;;5.00;;
28003;SDS011;15330;51.234;6.754;2023-08-31T02:02:13;10.57;;;5.55;;
28003;SDS011;15330;51.234;6.754;2023-08-31T02:04:39;13.57;;;4.40;;
28003;SDS011;15330;51.234;6.754;2023-08-31T02:07:04;9.60;;;4.50;;
28003;SDS011;15330;51.234;6.754;2023-08-31T02:09:30;7.88;;;4.60;;
28003;SDS011;15330;51.234;6.754;2023-08-31T02:11:55;7.75;;;4.10;;
28003;SDS011;15330;51.234;6.754;2023-08-31T02:14:21;8.18;;;4.15;;
28003;SDS011;15330;51.234;6.754;2023-08-31T02:16:47;9.32;;;5.20;;
28003;SDS011;15330;51.234;6.754;2023-08-31T02:19:12;8.05;;;4.85;;
28003;SDS011;15330;51.234;6.754;2023-08-31T02:21:38;8.30;;;4.57;;
28003;SDS011;15330;51.234;6.754;2023-08-31T02:24:03;7.65;;;4.63;;
28003;SDS011;15330;51.234;6.754;2023-08-31T02:26:29;5.95;;;4.07;;
28003;SDS011;15330;51.234;6.754;2023-08-31T02:28:54;9.00;;;4.75;;
28003;SDS011;15330;51.234;6.754;2023-08-31T02:31:20;7.00;;;4.88;;
28003;SDS011;15330;51.234;6.754;2023-08-31T02:33:46;9.23;;;4.90;;
28003;SDS011;15330;51.234;6.754;2023-08-31T02:36:12;7.20;;;4.43;;
28003;SDS011;15330;51.234;6.754;2023-08-31T02:38:37;8.45;;;3.90;;
28003;SDS011;15330;51.234;6.754;2023-08-31T02:41:02;7.70;;;4.28;;
28003;SDS011;15330;51.234;6.754;2023-08-31T02:43:28;10.02;;;4.95;;
28003;SDS011;15330;51.234;6.754;2023-08-31T02:46:01;9.20;;;4.85;;
28003;SDS011;15330;51.234;6.754;2023-08-31T02:48:27;9.50;;;4.77;;
28003;SDS011;15330;51.234;6.754;2023-08-31T02:50:54;6.97;;;4.30;;
28003;SDS011;15330;51.234;6.754;2023-08-31T02:53:20;7.30;;;4.60;;
28003;SDS011;15330;51.234;6.754;2023-08-31T02:55:46;10.48;;;4.80;;
28003;SDS011;15330;51.234;6.754;2023-08-31T02:58:11;6.18;;;4.40;;
28003;SDS011;15330;51.234;6.754;2023-08-31T03:00:37;8.65;;;4.57;;
28003;SDS011;15330;51.234;6.754;2023-08-31T03:03:07;8.63;;;4.18;;
28003;SDS011;15330;51.234;6.754;2023-08-31T03:05:33;8.40;;;4.13;;
28003;SDS011;15330;51.234;6.754;2023-08-31T03:07:59;6.85;;;3.85;;
28003;SDS011;15330;51.234;6.754;2023-08-31T03:10:24;5.63;;;3.75;;
28003;SDS011;15330;51.234;6.754;2023-08-31T03:12:49;7.32;;;4.07;;
28003;SDS011;15330;51.234;6.754;2023-08-31T03:15:15;6.03;;;4.10;;
28003;SDS011;15330;51.234;6.754;2023-08-31T03:17:40;7.97;;;4.13;;
28003;SDS011;15330;51.234;6.754;2023-08-31T03:20:06;4.75;;;3.75;;
28003;SDS011;15330;51.234;6.754;2023-08-31T03:22:32;7.80;;;4.03;;
28003;SDS011;15330;51.234;6.754;2023-08-31T03:24:57;8.48;;;4.57;;
28003;SDS011;15330;51.234;6.754;2023-08-31T03:27:23;9.55;;;3.95;;
28003;SDS011;15330;51.234;6.754;2023-08-31T03:29:48;5.28;;;3.55;;
28003;SDS011;15330;51.234;6.754;2023-08-31T03:32:13;9.27;;;4.53;;
28003;SDS011;15330;51.234;6.754;2023-08-31T03:34:39;8.13;;;4.18;;
28003;SDS011;15330;51.234;6.754;2023-08-31T03:37:04;8.23;;;4.40;;
28003;SDS011;15330;51.234;6.754;2023-08-31T03:39:30;6.30;;;3.95;;
28003;SDS011;15330;51.234;6.754;2023-08-31T03:41:55;7.95;;;4.40;;
28003;SDS011;15330;51.234;6.754;2023-08-31T03:44:21;6.82;;;4.53;;
28003;SDS011;15330;51.234;6.754;2023-08-31T03:46:46;6.72;;;4.38;;
28003;SDS011;15330;51.234;6.754;2023-08-31T03:49:12;7.57;;;4.75;;
28003;SDS011;15330;51.234;6.754;2023-08-31T03:51:37;6.82;;;4.40;;
28003;SDS011;15330;51.234;6.754;2023-08-31T03:54:03;9.50;;;5.47;;
28003;SDS011;15330;51.234;6.754;2023-08-31T03:56:28;9.40;;;4.35;;
28003;SDS011;15330;51.234;6.754;2023-08-31T03:58:53;11.85;;;5.15;;
28003;SDS011;15330;51.234;6.754;2023-08-31T04:01:19;9.13;;;5.45;;
28003;SDS011;15330;51.234;6.754;2023-08-31T04:03:45;10.80;;;5.78;;
28003;SDS011;15330;51.234;6.754;2023-08-31T04:06:10;8.70;;;6.03;;
28003;SDS011;15330;51.234;6.754;2023-08-31T04:08:35;9.98;;;5.97;;
28003;SDS011;15330;51.234;6.754;2023-08-31T04:11:01;10.10;;;5.60;;
28003;SDS011;15330;51.234;6.754;2023-08-31T04:13:26;9.48;;;5.82;;
28003;SDS011;15330;51.234;6.754;2023-08-31T04:15:52;11.80;;;5.57;;
28003;SDS011;15330;51.234;6.754;2023-08-31T04:18:18;13.25;;;5.28;;
28003;SDS011;15330;51.234;6.754;2023-08-31T04:20:53;10.40;;;5.28;;
28003;SDS011;15330;51.234;6.754;2023-08-31T04:23:19;10.07;;;5.18;;
28003;SDS011;15330;51.234;6.754;2023-08-31T04:25:45;8.00;;;4.88;;
28003;SDS011;15330;51.234;6.754;2023-08-31T04:28:11;9.27;;;5.22;;
28003;SDS011;15330;51.234;6.754;2023-08-31T04:30:36;9.88;;;5.53;;
28003;SDS011;15330;51.234;6.754;2023-08-31T04:33:02;10.05;;;6.30;;
28003;SDS011;15330;51.234;6.754;2023-08-31T04:35:29;9.00;;;6.82;;
28003;SDS011;15330;51.234;6.754;2023-08-31T04:37:56;12.43;;;6.88;;
28003;SDS011;15330;51.234;6.754;2023-08-31T04:40:22;18.40;;;7.28;;
28003;SDS011;15330;51.234;6.754;2023-08-31T04:42:47;15.43;;;7.00;;
28003;SDS011;15330;51.234;6.754;2023-08-31T04:45:12;11.57;;;7.43;;
28003;SDS011;15330;51.234;6.754;2023-08-31T04:47:38;16.83;;;7.82;;
28003;SDS011;15330;51.234;6.754;2023-08-31T04:50:03;14.85;;;7.78;;
28003;SDS011;15330;51.234;6.754;2023-08-31T04:52:31;16.35;;;8.23;;
28003;SDS011;15330;51.234;6.754;2023-08-31T04:54:57;14.68;;;7.35;;
28003;SDS011;15330;51.234;6.754;2023-08-31T04:57:22;14.23;;;7.60;;
28003;SDS011;15330;51.234;6.754;2023-08-31T04:59:48;16.10;;;7.38;;
28003;SDS011;15330;51.234;6.754;2023-08-31T05:02:14;11.75;;;7.10;;
28003;SDS011;15330;51.234;6.754;2023-08-31T05:04:39;15.55;;;7.60;;
28003;SDS011;15330;51.234;6.754;2023-08-31T05:07:05;13.50;;;6.93;;
28003;SDS011;15330;51.234;6.754;2023-08-31T05:09:30;12.18;;;8.02;;
28003;SDS011;15330;51.234;6.754;2023-08-31T05:12:00;11.55;;;6.50;;
28003;SDS011;15330;51.234;6.754;2023-08-31T05:14:27;11.75;;;7.97;;
28003;SDS011;15330;51.234;6.754;2023-08-31T05:16:52;11.55;;;8.48;;
28003;SDS011;15330;51.234;6.754;2023-08-31T05:19:18;10.75;;;7.93;;
28003;SDS011;15330;51.234;6.754;2023-08-31T05:21:43;12.55;;;7.68;;
28003;SDS011;15330;51.234;6.754;2023-08-31T05:24:09;17.02;;;8.20;;
28003;SDS011;15330;51.234;6.754;2023-08-31T05:26:34;10.48;;;7.57;;
28003;SDS011;15330;51.234;6.754;2023-08-31T05:28:59;12.10;;;7.70;;
28003;SDS011;15330;51.234;6.754;2023-08-31T05:31:25;11.18;;;7.72;;
28003;SDS011;15330;51.234;6.754;2023-08-31T05:33:50;16.52;;;7.90;;
28003;SDS011;15330;51.234;6.754;2023-08-31T05:36:16;14.75;;;8.32;;
28003;SDS011;15330;51.234;6.754;2023-08-31T05:38:41;10.38;;;7.60;;
28003;SDS011;15330;51.234;6.754;2023-08-31T05:41:07;14.45;;;7.78;;
28003;SDS011;15330;51.234;6.754;2023-08-31T05:43:36;14.43;;;7.38;;
28003;SDS011;15330;51.234;6.754;2023-08-31T05:46:05;10.52;;;7.43;;
28003;SDS011;15330;51.234;6.754;2023-08-31T05:48:30;11.35;;;7.32;;
28003;SDS011;15330;51.234;6.754;2023-08-31T05:50:56;11.23;;;6.65;;
28003;SDS011;15330;51.234;6.754;2023-08-31T05:53:22;12.15;;;7.80;;
28003;SDS011;15330;51.234;6.754;2023-08-31T05:55:47;16.17;;;7.85;;
28003;SDS011;15330;51.234;6.754;2023-08-31T05:58:13;11.07;;;7.05;;
28003;SDS011;15330;51.234;6.754;2023-08-31T06:00:38;12.50;;;7.32;;
28003;SDS011;15330;51.234;6.754;2023-08-31T06:03:04;12.02;;;6.75;;
28003;SDS011;15330;51.234;6.754;2023-08-31T06:05:31;10.95;;;6.28;;
28003;SDS011;15330;51.234;6.754;2023-08-31T06:07:57;9.48;;;5.32;;
28003;SDS011;15330;51.234;6.754;2023-08-31T06:10:22;11.75;;;6.10;;
28003;SDS011;15330;51.234;6.754;2023-08-31T06:12:48;8.98;;;6.22;;
28003;SDS011;15330;51.234;6.754;2023-08-31T06:15:15;9.10;;;5.50;;
28003;SDS011;15330;51.234;6.754;2023-08-31T06:17:41;7.85;;;5.18;;
28003;SDS011;15330;51.234;6.754;2023-08-31T06:20:06;9.50;;;5.35;;
28003;SDS011;15330;51.234;6.754;2023-08-31T06:22:33;12.02;;;5.45;;
28003;SDS011;15330;51.234;6.754;2023-08-31T06:24:59;12.43;;;5.35;;
28003;SDS011;15330;51.234;6.754;2023-08-31T06:27:24;10.98;;;5.43;;
28003;SDS011;15330;51.234;6.754;2023-08-31T06:29:50;6.00;;;4.47;;
28003;SDS011;15330;51.234;6.754;2023-08-31T06:32:16;6.38;;;5.03;;
28003;SDS011;15330;51.234;6.754;2023-08-31T06:34:42;7.80;;;4.40;;
28003;SDS011;15330;51.234;6.754;2023-08-31T06:37:07;8.82;;;4.82;;
28003;SDS011;15330;51.234;6.754;2023-08-31T06:39:33;10.88;;;4.68;;
28003;SDS011;15330;51.234;6.754;2023-08-31T06:41:58;12.65;;;5.53;;
28003;SDS011;15330;51.234;6.754;2023-08-31T06:44:24;7.55;;;4.90;;
28003;SDS011;15330;51.234;6.754;2023-08-31T06:46:49;6.43;;;4.63;;
28003;SDS011;15330;51.234;6.754;2023-08-31T06:49:14;6.78;;;4.18;;
28003;SDS011;15330;51.234;6.754;2023-08-31T06:51:40;10.02;;;4.65;;
28003;SDS011;15330;51.234;6.754;2023-08-31T06:54:05;7.22;;;4.25;;
28003;SDS011;15330;51.234;6.754;2023-08-31T06:56:34;8.10;;;3.97;;
28003;SDS011;15330;51.234;6.754;2023-08-31T06:59:00;11.13;;;4.13;;
28003;SDS011;15330;51.234;6.754;2023-08-31T07:01:26;9.82;;;4.32;;
28003;SDS011;15330;51.234;6.754;2023-08-31T07:03:52;13.27;;;4.20;;
28003;SDS011;15330;51.234;6.754;2023-08-31T07:06:18;7.50;;;4.10;;
28003;SDS011;15330;51.234;6.754;2023-08-31T07:08:43;7.60;;;3.67;;
28003;SDS011;15330;51.234;6.754;2023-08-31T07:11:10;10.07;;;4.53;;
28003;SDS011;15330;51.234;6.754;2023-08-31T07:13:36;7.95;;;3.95;;
28003;SDS011;15330;51.234;6.754;2023-08-31T07:16:02;8.27;;;4.07;;
28003;SDS011;15330;51.234;6.754;2023-08-31T07:18:27;6.00;;;3.38;;
28003;SDS011;15330;51.234;6.754;2023-08-31T07:20:53;8.20;;;4.10;;
28003;SDS011;15330;51.234;6.754;2023-08-31T07:23:18;6.43;;;4.30;;
28003;SDS011;15330;51.234;6.754;2023-08-31T07:25:43;5.45;;;3.90;;
28003;SDS011;15330;51.234;6.754;2023-08-31T07:28:09;6.13;;;3.90;;
28003;SDS011;15330;51.234;6.754;2023-08-31T07:30:35;5.78;;;3.25;;
28003;SDS011;15330;51.234;6.754;2023-08-31T07:33:02;7.30;;;3.80;;
28003;SDS011;15330;51.234;6.754;2023-08-31T07:35:29;10.25;;;3.80;;
28003;SDS011;15330;51.234;6.754;2023-08-31T07:37:54;6.70;;;3.63;;
28003;SDS011;15330;51.234;6.754;2023-08-31T07:40:20;6.10;;;3.30;;
28003;SDS011;15330;51.234;6.754;2023-08-31T07:42:45;5.90;;;3.30;;
28003;SDS011;15330;51.234;6.754;2023-08-31T07:45:11;8.18;;;3.20;;
28003;SDS011;15330;51.234;6.754;2023-08-31T07:47:36;4.88;;;2.90;;
28003;SDS011;15330;51.234;6.754;2023-08-31T07:50:02;8.45;;;3.13;;
28003;SDS011;15330;51.234;6.754;2023-08-31T07:52:28;8.45;;;3.00;;
28003;SDS011;15330;51.234;6.754;2023-08-31T07:54:53;4.72;;;2.97;;
28003;SDS011;15330;51.234;6.754;2023-08-31T07:57:19;7.07;;;2.75;;
28003;SDS011;15330;51.234;6.754;2023-08-31T07:59:44;6.00;;;2.80;;
28003;SDS011;15330;51.234;6.754;2023-08-31T08:02:10;4.35;;;2.30;;
28003;SDS011;15330;51.234;6.754;2023-08-31T08:04:35;8.35;;;3.08;;
28003;SDS011;15330;51.234;6.754;2023-08-31T08:07:01;4.07;;;2.55;;
28003;SDS011;15330;51.234;6.754;2023-08-31T08:09:27;4.97;;;2.75;;
28003;SDS011;15330;51.234;6.754;2023-08-31T08:11:53;9.55;;;2.88;;
28003;SDS011;15330;51.234;6.754;2023-08-31T08:14:19;4.97;;;2.72;;
28003;SDS011;15330;51.234;6.754;2023-08-31T08:16:44;4.53;;;2.63;;
28003;SDS011;15330;51.234;6.754;2023-08-31T08:19:09;4.38;;;2.85;;
28003;SDS011;15330;51.234;6.754;2023-08-31T08:21:35;4.88;;;2.75;;
28003;SDS011;15330;51.234;6.754;2023-08-31T08:24:00;5.97;;;2.63;;
28003;SDS011;15330;51.234;6.754;2023-08-31T08:26:25;7.07;;;2.60;;
28003;SDS011;15330;51.234;6.754;2023-08-31T08:28:51;8.85;;;3.00;;
28003;SDS011;15330;51.234;6.754;2023-08-31T08:31:16;8.13;;;2.92;;
28003;SDS011;15330;51.234;6.754;2023-08-31T08:33:42;6.65;;;2.97;;
28003;SDS011;15330;51.234;6.754;2023-08-31T08:36:07;4.82;;;2.60;;
28003;SDS011;15330;51.234;6.754;2023-08-31T08:38:32;6.80;;;2.95;;
28003;SDS011;15330;51.234;6.754;2023-08-31T08:40:59;7.28;;;2.80;;
28003;SDS011;15330;51.234;6.754;2023-08-31T08:43:29;6.55;;;2.80;;
28003;SDS011;15330;51.234;6.754;2023-08-31T08:45:55;7.43;;;2.80;;
28003;SDS011;15330;51.234;6.754;2023-08-31T08:48:27;8.77;;;2.77;;
28003;SDS011;15330;51.234;6.754;2023-08-31T08:50:53;6.10;;;3.03;;
28003;SDS011;15330;51.234;6.754;2023-08-31T08:53:19;4.88;;;2.90;;
28003;SDS011;15330;51.234;6.754;2023-08-31T08:55:44;5.28;;;2.83;;
28003;SDS011;15330;51.234;6.754;2023-08-31T08:58:10;8.55;;;2.83;;
28003;SDS011;15330;51.234;6.754;2023-08-31T09:00:35;6.40;;;2.38;;
28003;SDS011;15330;51.234;6.754;2023-08-31T09:03:01;5.13;;;2.58;;
28003;SDS011;15330;51.234;6.754;2023-08-31T09:05:32;4.43;;;2.53;;
28003;SDS011;15330;51.234;6.754;2023-08-31T09:10:42;3.70;;;2.40;;
28003;SDS011;15330;51.234;6.754;2023-08-31T09:13:09;5.28;;;2.20;;
28003;SDS011;15330;51.234;6.754;2023-08-31T09:15:39;5.95;;;2.35;;
28003;SDS011;15330;51.234;6.754;2023-08-31T09:18:06;6.65;;;3.10;;
28003;SDS011;15330;51.234;6.754;2023-08-31T09:20:32;6.03;;;2.40;;
28003;SDS011;15330;51.234;6.754;2023-08-31T09:23:08;7.00;;;2.60;;
28003;SDS011;15330;51.234;6.754;2023-08-31T09:25:38;9.77;;;2.78;;
28003;SDS011;15330;51.234;6.754;2023-08-31T09:28:07;3.38;;;2.13;;
28003;SDS011;15330;51.234;6.754;2023-08-31T09:30:36;4.15;;;2.15;;
28003;SDS011;15330;51.234;6.754;2023-08-31T09:33:03;4.88;;;2.10;;
28003;SDS011;15330;51.234;6.754;2023-08-31T09:35:30;4.32;;;2.33;;
28003;SDS011;15330;51.234;6.754;2023-08-31T09:37:56;6.03;;;2.90;;
28003;SDS011;15330;51.234;6.754;2023-08-31T09:40:25;4.47;;;2.40;;
28003;SDS011;15330;51.234;6.754;2023-08-31T09:42:50;7.43;;;2.70;;
28003;SDS011;15330;51.234;6.754;2023-08-31T09:45:25;6.13;;;2.35;;
28003;SDS011;15330;51.234;6.754;2023-08-31T09:47:53;6.57;;;2.20;;
28003;SDS011;15330;51.234;6.754;2023-08-31T09:50:18;7.72;;;2.58;;
28003;SDS011;15330;51.234;6.754;2023-08-31T09:52:45;6.47;;;2.55;;
28003;SDS011;15330;51.234;6.754;2023-08-31T09:55:12;4.68;;;2.35;;
28003;SDS011;15330;51.234;6.754;2023-08-31T09:57:38;6.38;;;2.10;;
28003;SDS011;15330;51.234;6.754;2023-08-31T10:00:05;4.85;;;2.30;;
28003;SDS011;15330;51.234;6.754;2023-08-31T10:02:32;5.20;;;2.20;;
28003;SDS011;15330;51.234;6.754;2023-08-31T10:04:58;6.20;;;2.63;;
28003;SDS011;15330;51.234;6.754;2023-08-31T10:07:24;7.78;;;2.53;;
28003;SDS011;15330;51.234;6.754;2023-08-31T10:09:50;4.40;;;2.13;;
28003;SDS011;15330;51.234;6.754;2023-08-31T10:12:16;4.90;;;2.38;;
28003;SDS011;15330;51.234;6.754;2023-08-31T10:14:43;5.53;;;2.13;;
28003;SDS011;15330;51.234;6.754;2023-08-31T10:17:11;4.72;;;1.85;;
28003;SDS011;15330;51.234;6.754;2023-08-31T10:19:38;3.65;;;1.83;;
28003;SDS011;15330;51.234;6.754;2023-08-31T10:22:05;6.03;;;2.83;;
28003;SDS011;15330;51.234;6.754;2023-08-31T10:27:26;7.03;;;2.65;;
28003;SDS011;15330;51.234;6.754;2023-08-31T10:29:52;6.43;;;2.60;;
28003;SDS011;15330;51.234;6.754;2023-08-31T10:32:18;7.90;;;2.47;;
28003;SDS011;15330;51.234;6.754;2023-08-31T10:34:44;8.25;;;2.53;;
28003;SDS011;15330;51.234;6.754;2023-08-31T10:37:29;9.32;;;2.40;;
28003;SDS011;15330;51.234;6.754;2023-08-31T10:40:10;10.70;;;2.80;;
28003;SDS011;15330;51.234;6.754;2023-08-31T10:42:43;9.45;;;2.60;;
28003;SDS011;15330;51.234;6.754;2023-08-31T10:45:10;6.97;;;2.47;;
28003;SDS011;15330;51.234;6.754;2023-08-31T10:47:39;6.93;;;2.30;;
28003;SDS011;15330;51.234;6.754;2023-08-31T10:50:15;7.55;;;2.00;;
28003;SDS011;15330;51.234;6.754;2023-08-31T10:52:45;4.05;;;2.10;;
28003;SDS011;15330;51.234;6.754;2023-08-31T10:55:11;7.00;;;2.03;;
28003;SDS011;15330;51.234;6.754;2023-08-31T10:57:36;8.25;;;2.22;;
28003;SDS011;15330;51.234;6.754;2023-08-31T11:00:02;7.18;;;2.40;;
28003;SDS011;15330;51.234;6.754;2023-08-31T11:05:05;9.57;;;2.30;;
28003;SDS011;15330;51.234;6.754;2023-08-31T11:07:31;5.38;;;2.60;;
28003;SDS011;15330;51.234;6.754;2023-08-31T11:10:15;7.05;;;1.98;;
28003;SDS011;15330;51.234;6.754;2023-08-31T11:12:59;7.20;;;2.17;;
28003;SDS011;15330;51.234;6.754;2023-08-31T11:15:25;3.38;;;1.92;;
28003;SDS011;15330;51.234;6.754;2023-08-31T11:17:52;10.52;;;2.33;;
28003;SDS011;15330;51.234;6.754;2023-08-31T11:20:19;5.13;;;2.08;;
28003;SDS011;15330;51.234;6.754;2023-08-31T11:22:46;8.05;;;2.40;;
28003;SDS011;15330;51.234;6.754;2023-08-31T11:25:18;4.15;;;2.33;;
28003;SDS011;15330;51.234;6.754;2023-08-31T11:27:56;5.05;;;2.40;;
28003;SDS011;15330;51.234;6.754;2023-08-31T11:30:24;6.18;;;2.30;;
28003;SDS011;15330;51.234;6.754;2023-08-31T11:32:53;7.38;;;2.53;;
28003;SDS011;15330;51.234;6.754;2023-08-31T11:35:19;4.57;;;2.20;;
28003;SDS011;15330;51.234;6.754;2023-08-31T11:37:49;4.07;;;2.50;;
28003;SDS011;15330;51.234;6.754;2023-08-31T11:40:16;8.15;;;2.70;;
28003;SDS011;15330;51.234;6.754;2023-08-31T11:42:41;6.80;;;2.35;;
28003;SDS011;15330;51.234;6.754;2023-08-31T11:45:07;4.18;;;2.67;;
28003;SDS011;15330;51.234;6.754;2023-08-31T11:47:34;5.28;;;2.95;;
28003;SDS011;15330;51.234;6.754;2023-08-31T11:50:00;5.10;;;2.50;;
28003;SDS011;15330;51.234;6.754;2023-08-31T11:52:30;7.63;;;2.40;;
28003;SDS011;15330;51.234;6.754;2023-08-31T11:54:56;7.43;;;2.60;;
28003;SDS011;15330;51.234;6.754;2023-08-31T11:57:24;8.27;;;3.00;;
28003;SDS011;15330;51.234;6.754;2023-08-31T11:59:50;7.30;;;2.80;;
28003;SDS011;15330;51.234;6.754;2023-08-31T12:02:18;7.78;;;3.00;;
28003;SDS011;15330;51.234;6.754;2023-08-31T12:04:45;6.82;;;3.22;;
28003;SDS011;15330;51.234;6.754;2023-08-31T12:07:12;5.15;;;2.80;;
28003;SDS011;15330;51.234;6.754;2023-08-31T12:09:41;8.18;;;3.08;;
28003;SDS011;15330;51.234;6.754;2023-08-31T12:12:09;7.03;;;2.88;;
28003;SDS011;15330;51.234;6.754;2023-08-31T12:14:36;5.18;;;2.78;;
28003;SDS011;15330;51.234;6.754;2023-08-31T12:17:04;7.90;;;2.88;;
28003;SDS011;15330;51.234;6.754;2023-08-31T12:19:31;5.10;;;2.42;;
28003;SDS011;15330;51.234;6.754;2023-08-31T12:21:57;6.53;;;2.60;;
28003;SDS011;15330;51.234;6.754;2023-08-31T12:24:24;10.90;;;3.22;;
28003;SDS011;15330;51.234;6.754;2023-08-31T12:26:50;6.20;;;2.50;;
28003;SDS011;15330;51.234;6.754;2023-08-31T12:29:16;5.85;;;2.50;;
28003;SDS011;15330;51.234;6.754;2023-08-31T12:31:42;5.65;;;2.00;;
28003;SDS011;15330;51.234;6.754;2023-08-31T12:34:08;5.35;;;1.98;;
28003;SDS011;15330;51.234;6.754;2023-08-31T12:36:34;6.57;;;1.92;;
28003;SDS011;15330;51.234;6.754;2023-08-31T12:39:01;6.43;;;2.00;;
28003;SDS011;15330;51.234;6.754;2023-08-31T12:41:30;4.40;;;2.28;;
28003;SDS011;15330;51.234;6.754;2023-08-31T12:43:56;6.32;;;2.35;;
28003;SDS011;15330;51.234;6.754;2023-08-31T12:46:22;5.22;;;2.70;;
28003;SDS011;15330;51.234;6.754;2023-08-31T12:48:47;4.03;;;2.08;;
28003;SDS011;15330;51.234;6.754;2023-08-31T12:51:14;5.45;;;2.67;;
28003;SDS011;15330;51.234;6.754;2023-08-31T12:53:40;2.90;;;2.13;;
28003;SDS011;15330;51.234;6.754;2023-08-31T12:56:06;4.05;;;2.10;;
28003;SDS011;15330;51.234;6.754;2023-08-31T12:58:31;5.78;;;2.60;;
28003;SDS011;15330;51.234;6.754;2023-08-31T13:00:57;7.97;;;2.42;;
28003;SDS011;15330;51.234;6.754;2023-08-31T13:03:24;7.95;;;2.30;;
28003;SDS011;15330;51.234;6.754;2023-08-31T13:05:49;4.57;;;1.60;;
28003;SDS011;15330;51.234;6.754;2023-08-31T13:08:15;6.68;;;2.20;;
28003;SDS011;15330;51.234;6.754;2023-08-31T13:10:41;5.97;;;2.10;;
28003;SDS011;15330;51.234;6.754;2023-08-31T13:13:07;6.43;;;2.47;;
28003;SDS011;15330;51.234;6.754;2023-08-31T13:15:32;5.22;;;2.33;;
28003;SDS011;15330;51.234;6.754;2023-08-31T13:17:58;4.05;;;1.73;;
28003;SDS011;15330;51.234;6.754;2023-08-31T13:20:24;4.70;;;1.80;;
28003;SDS011;15330;51.234;6.754;2023-08-31T13:22:49;5.95;;;1.85;;
28003;SDS011;15330;51.234;6.754;2023-08-31T13:25:16;5.55;;;1.90;;
28003;SDS011;15330;51.234;6.754;2023-08-31T13:27:42;5.28;;;1.80;;
28003;SDS011;15330;51.234;6.754;2023-08-31T13:30:07;6.53;;;2.05;;
28003;SDS011;15330;51.234;6.754;2023-08-31T13:32:34;4.85;;;1.90;;
28003;SDS011;15330;51.234;6.754;2023-08-31T13:34:59;10.07;;;2.70;;
28003;SDS011;15330;51.234;6.754;2023-08-31T13:37:25;9.27;;;1.90;;
28003;SDS011;15330;51.234;6.754;2023-08-31T13:39:51;4.45;;;2.08;;
28003;SDS011;15330;51.234;6.754;2023-08-31T13:42:22;5.20;;;2.17;;
28003;SDS011;15330;51.234;6.754;2023-08-31T13:44:47;3.42;;;1.80;;
28003;SDS011;15330;51.234;6.754;2023-08-31T13:47:12;6.28;;;2.22;;
28003;SDS011;15330;51.234;6.754;2023-08-31T13:49:38;4.95;;;1.95;;
28003;SDS011;15330;51.234;6.754;2023-08-31T13:52:03;5.07;;;1.60;;
28003;SDS011;15330;51.234;6.754;2023-08-31T13:54:30;4.30;;;1.70;;
28003;SDS011;15330;51.234;6.754;2023-08-31T13:56:59;4.75;;;1.80;;
28003;SDS011;15330;51.234;6.754;2023-08-31T13:59:24;11.05;;;2.10;;
28003;SDS011;15330;51.234;6.754;2023-08-31T14:01:52;3.90;;;1.98;;
28003;SDS011;15330;51.234;6.754;2023-08-31T14:04:18;4.28;;;1.60;;
28003;SDS011;15330;51.234;6.754;2023-08-31T14:06:44;3.60;;;2.10;;
28003;SDS011;15330;51.234;6.754;2023-08-31T14:09:09;6.70;;;2.28;;
28003;SDS011;15330;51.234;6.754;2023-08-31T14:11:35;6.30;;;2.65;;
28003;SDS011;15330;51.234;6.754;2023-08-31T14:14:04;7.00;;;2.80;;
28003;SDS011;15330;51.234;6.754;2023-08-31T14:16:31;8.13;;;2.40;;
28003;SDS011;15330;51.234;6.754;2023-08-31T14:18:57;6.05;;;2.10;;
28003;SDS011;15330;51.234;6.754;2023-08-31T14:21:22;5.50;;;2.47;;
28003;SDS011;15330;51.234;6.754;2023-08-31T14:23:48;5.40;;;2.60;;
28003;SDS011;15330;51.234;6.754;2023-08-31T14:26:13;8.05;;;2.33;;
28003;SDS011;15330;51.234;6.754;2023-08-31T14:28:39;6.18;;;2.40;;
28003;SDS011;15330;51.234;6.754;2023-08-31T14:31:05;5.20;;;2.35;;
28003;SDS011;15330;51.234;6.754;2023-08-31T14:33:30;4.90;;;2.13;;
28003;SDS011;15330;51.234;6.754;2023-08-31T14:35:56;3.88;;;2.33;;
28003;SDS011;15330;51.234;6.754;2023-08-31T14:38:22;5.72;;;2.10;;
28003;SDS011;15330;51.234;6.754;2023-08-31T14:40:48;7.38;;;2.25;;
28003;SDS011;15330;51.234;6.754;2023-08-31T14:43:13;4.47;;;2.22;;
28003;SDS011;15330;51.234;6.754;2023-08-31T14:45:39;6.63;;;1.95;;
28003;SDS011;15330;51.234;6.754;2023-08-31T14:48:04;5.53;;;2.13;;
28003;SDS011;15330;51.234;6.754;2023-08-31T14:50:30;6.25;;;2.45;;
28003;SDS011;15330;51.234;6.754;2023-08-31T14:52:55;8.00;;;2.38;;